createdAt,value
2018-01-08T00:00:55.619Z,0.00
2018-01-08T00:01:55.595Z,0.00
2018-01-08T00:02:55.576Z,0.00
2018-01-08T00:03:55.560Z,0.00
2018-01-08T00:04:55.558Z,0.00
2018-01-08T00:05:55.518Z,0.00
2018-01-08T00:06:55.506Z,0.00
2018-01-08T00:07:55.481Z,0.00
2018-01-08T00:08:55.490Z,0.00
2018-01-08T00:09:55.451Z,0.00
2018-01-08T00:10:55.427Z,0.00
2018-01-08T00:11:55.405Z,0.00
2018-01-08T00:12:55.400Z,0.00
2018-01-08T00:13:55.380Z,0.00
2018-01-08T00:14:55.383Z,0.00
2018-01-08T00:15:55.346Z,0.00
2018-01-08T00:16:55.326Z,0.00
2018-01-08T00:17:55.301Z,0.00
2018-01-08T00:18:55.295Z,0.00
2018-01-08T00:19:55.299Z,0.00
2018-01-08T00:20:55.248Z,0.00
2018-01-08T00:21:55.239Z,0.00
2018-01-08T00:22:55.214Z,0.00
2018-01-08T00:23:55.199Z,0.00
2018-01-08T00:24:55.189Z,0.00
2018-01-08T00:25:55.199Z,0.00
2018-01-08T00:26:55.140Z,0.00
2018-01-08T00:27:55.132Z,0.00
2018-01-08T00:28:55.113Z,0.00
2018-01-08T00:29:55.114Z,0.00
2018-01-08T00:30:55.069Z,0.00
2018-01-08T00:31:55.061Z,0.00
2018-01-08T00:32:55.042Z,0.00
2018-01-08T00:33:55.014Z,0.00
2018-01-08T00:34:55.004Z,0.00
2018-01-08T00:35:55.019Z,0.00
2018-01-08T00:36:54.965Z,0.00
2018-01-08T00:37:54.953Z,0.00
2018-01-08T00:38:54.931Z,0.00
2018-01-08T00:39:54.917Z,0.00
2018-01-08T00:40:54.892Z,0.00
2018-01-08T00:41:54.901Z,0.00
2018-01-08T00:42:54.866Z,0.00
2018-01-08T00:43:54.846Z,0.00
2018-01-08T00:44:54.829Z,0.00
2018-01-08T00:45:54.838Z,0.00
2018-01-08T00:46:54.790Z,0.00
2018-01-08T00:47:54.770Z,0.00
2018-01-08T00:48:54.752Z,0.00
2018-01-08T00:49:54.737Z,0.00
2018-01-08T00:50:54.719Z,0.00
2018-01-08T00:51:54.723Z,0.00
2018-01-08T00:52:54.690Z,0.00
2018-01-08T00:53:54.670Z,0.00
2018-01-08T00:54:54.653Z,0.00
2018-01-08T00:55:54.634Z,0.00
2018-01-08T00:56:54.635Z,0.00
2018-01-08T00:57:54.596Z,0.00
2018-01-08T00:58:54.582Z,0.00
2018-01-08T00:59:54.564Z,0.00
2018-01-08T01:00:54.568Z,0.00
2018-01-08T01:01:54.528Z,0.00
2018-01-08T01:02:54.512Z,0.00
2018-01-08T01:03:54.486Z,0.00
2018-01-08T01:04:54.467Z,0.00
2018-01-08T01:05:54.456Z,0.00
2018-01-08T01:06:54.472Z,0.00
2018-01-08T01:07:54.422Z,0.00
2018-01-08T01:08:54.407Z,0.00
2018-01-08T01:09:54.389Z,0.00
2018-01-08T01:10:54.372Z,0.00
2018-01-08T01:11:54.349Z,0.00
2018-01-08T01:12:54.365Z,0.00
2018-01-08T01:13:54.314Z,0.00
2018-01-08T01:14:54.294Z,0.00
2018-01-08T01:15:54.275Z,0.00
2018-01-08T01:16:54.283Z,0.00
2018-01-08T01:17:54.249Z,0.00
2018-01-08T01:18:54.233Z,0.00
2018-01-08T01:19:54.214Z,0.00
2018-01-08T01:20:54.192Z,0.00
2018-01-08T01:21:54.181Z,0.00
2018-01-08T01:22:54.182Z,0.00
2018-01-08T01:23:54.138Z,0.00
2018-01-08T01:24:54.122Z,0.00
2018-01-08T01:25:54.110Z,0.00
2018-01-08T01:26:54.116Z,0.00
2018-01-08T01:27:54.097Z,0.00
2018-01-08T01:28:54.051Z,0.00
2018-01-08T01:29:54.033Z,0.00
2018-01-08T01:30:54.017Z,0.00
2018-01-08T01:31:53.994Z,0.00
2018-01-08T01:32:54.000Z,0.00
2018-01-08T01:33:53.961Z,0.00
2018-01-08T01:34:53.942Z,0.00
2018-01-08T01:35:53.931Z,0.00
2018-01-08T01:36:53.915Z,0.00
2018-01-08T01:37:53.923Z,0.00
2018-01-08T01:38:53.871Z,0.00
2018-01-08T01:39:53.858Z,0.00
2018-01-08T01:40:53.839Z,0.00
2018-01-08T01:41:53.820Z,0.00
2018-01-08T01:42:53.820Z,0.00
2018-01-08T01:43:53.824Z,0.00
2018-01-08T01:44:53.767Z,0.00
2018-01-08T01:45:53.751Z,0.00
2018-01-08T01:46:53.735Z,0.00
2018-01-08T01:47:53.751Z,0.00
2018-01-08T01:48:53.700Z,0.00
2018-01-08T01:49:53.682Z,0.00
2018-01-08T01:50:53.663Z,0.00
2018-01-08T01:51:53.640Z,0.00
2018-01-08T01:52:53.622Z,0.00
2018-01-08T01:53:53.632Z,0.00
2018-01-08T01:54:53.590Z,0.00
2018-01-08T01:55:53.568Z,0.00
2018-01-08T01:56:53.560Z,0.00
2018-01-08T01:57:53.532Z,0.00
2018-01-08T01:58:53.523Z,0.00
2018-01-08T01:59:53.530Z,0.00
2018-01-08T02:00:53.490Z,0.00
2018-01-08T02:01:53.463Z,0.00
2018-01-08T02:02:53.450Z,0.00
2018-01-08T02:03:53.427Z,0.00
2018-01-08T02:04:53.415Z,0.00
2018-01-08T02:05:53.422Z,0.00
2018-01-08T02:06:53.378Z,0.00
2018-01-08T02:07:53.357Z,0.00
2018-01-08T02:08:53.338Z,0.00
2018-01-08T02:09:53.318Z,0.00
2018-01-08T02:10:53.302Z,0.00
2018-01-08T02:11:53.315Z,0.00
2018-01-08T02:12:53.277Z,0.00
2018-01-08T02:13:53.250Z,0.00
2018-01-08T02:14:53.233Z,0.00
2018-01-08T02:15:53.217Z,0.00
2018-01-08T02:16:53.202Z,0.00
2018-01-08T02:17:53.201Z,0.00
2018-01-08T02:18:53.167Z,0.00
2018-01-08T02:19:53.152Z,0.00
2018-01-08T02:20:53.131Z,0.00
2018-01-08T02:21:53.113Z,0.00
2018-01-08T02:22:53.116Z,0.00
2018-01-08T02:23:53.073Z,0.00
2018-01-08T02:24:53.053Z,0.00
2018-01-08T02:25:53.037Z,0.00
2018-01-08T02:26:53.028Z,0.00
2018-01-08T02:27:53.038Z,0.00
2018-01-08T02:28:52.993Z,0.00
2018-01-08T02:29:52.972Z,0.00
2018-01-08T02:30:52.962Z,0.00
2018-01-08T02:31:52.932Z,0.00
2018-01-08T02:32:52.921Z,0.00
2018-01-08T02:33:52.915Z,0.00
2018-01-08T02:34:52.882Z,0.00
2018-01-08T02:35:52.866Z,0.00
2018-01-08T02:36:52.841Z,0.00
2018-01-08T02:37:52.829Z,0.00
2018-01-08T02:38:52.831Z,0.00
2018-01-08T02:39:52.789Z,0.00
2018-01-08T02:40:52.770Z,0.00
2018-01-08T02:41:52.768Z,0.00
2018-01-08T02:42:52.738Z,0.00
2018-01-08T02:43:52.732Z,0.00
2018-01-08T02:44:52.729Z,0.00
2018-01-08T02:45:52.684Z,0.00
2018-01-08T02:46:52.667Z,0.00
2018-01-08T02:47:52.652Z,0.00
2018-01-08T02:48:52.641Z,0.00
2018-01-08T02:49:52.632Z,0.00
2018-01-08T02:50:52.600Z,0.00
2018-01-08T02:51:52.587Z,0.00
2018-01-08T02:52:52.559Z,0.00
2018-01-08T02:53:52.540Z,0.00
2018-01-08T02:54:52.550Z,0.00
2018-01-08T02:55:52.502Z,0.00
2018-01-08T02:56:52.552Z,0.00
2018-01-08T02:57:52.474Z,0.00
2018-01-08T02:58:52.450Z,0.00
2018-01-08T02:59:52.443Z,0.00
2018-01-08T03:00:52.443Z,0.00
2018-01-08T03:01:52.404Z,0.00
2018-01-08T03:02:52.379Z,0.00
2018-01-08T03:03:52.372Z,0.00
2018-01-08T03:04:52.344Z,0.00
2018-01-08T03:05:52.353Z,0.00
2018-01-08T03:06:52.312Z,0.00
2018-01-08T03:07:52.295Z,0.00
2018-01-08T03:08:52.273Z,0.00
2018-01-08T03:09:52.262Z,0.00
2018-01-08T03:10:52.244Z,0.00
2018-01-08T03:11:52.250Z,0.00
2018-01-08T03:12:52.206Z,0.00
2018-01-08T03:13:52.187Z,0.00
2018-01-08T03:14:52.174Z,0.00
2018-01-08T03:15:52.177Z,0.00
2018-01-08T03:16:52.134Z,0.00
2018-01-08T03:17:52.112Z,0.00
2018-01-08T03:18:52.100Z,0.00
2018-01-08T03:19:52.081Z,0.00
2018-01-08T03:20:52.065Z,0.00
2018-01-08T03:21:52.066Z,0.00
2018-01-08T03:22:52.031Z,0.00
2018-01-08T03:23:52.010Z,0.00
2018-01-08T03:24:51.994Z,0.00
2018-01-08T03:25:51.971Z,0.00
2018-01-08T03:26:51.951Z,0.00
2018-01-08T03:27:51.957Z,0.00
2018-01-08T03:28:51.924Z,0.00
2018-01-08T03:29:51.905Z,0.00
2018-01-08T03:30:51.887Z,0.00
2018-01-08T03:31:51.900Z,0.00
2018-01-08T03:32:51.858Z,0.00
2018-01-08T03:33:51.829Z,0.00
2018-01-08T03:34:51.807Z,0.00
2018-01-08T03:35:51.790Z,0.00
2018-01-08T03:36:51.782Z,0.00
2018-01-08T03:37:51.790Z,0.00
2018-01-08T03:38:51.741Z,0.00
2018-01-08T03:39:51.727Z,0.00
2018-01-08T03:40:51.708Z,0.00
2018-01-08T03:41:51.685Z,0.00
2018-01-08T03:42:51.668Z,0.00
2018-01-08T03:43:51.680Z,0.00
2018-01-08T03:44:51.639Z,0.00
2018-01-08T03:45:51.611Z,0.00
2018-01-08T03:46:51.601Z,0.00
2018-01-08T03:47:51.586Z,0.00
2018-01-08T03:48:51.598Z,0.00
2018-01-08T03:49:51.541Z,0.00
2018-01-08T03:50:51.521Z,0.00
2018-01-08T03:51:51.511Z,0.00
2018-01-08T03:52:51.495Z,0.00
2018-01-08T03:53:51.468Z,0.00
2018-01-08T03:54:51.493Z,0.00
2018-01-08T03:55:51.438Z,0.00
2018-01-08T03:56:51.419Z,0.00
2018-01-08T03:57:51.405Z,0.00
2018-01-08T03:58:51.386Z,0.00
2018-01-08T03:59:51.365Z,0.00
2018-01-08T04:00:51.379Z,0.00
2018-01-08T04:01:51.336Z,0.00
2018-01-08T04:02:51.309Z,0.00
2018-01-08T04:03:51.294Z,0.00
2018-01-08T04:04:51.284Z,0.00
2018-01-08T04:05:51.270Z,0.00
2018-01-08T04:06:51.277Z,0.00
2018-01-08T04:07:51.226Z,0.00
2018-01-08T04:08:51.205Z,0.00
2018-01-08T04:09:51.190Z,0.00
2018-01-08T04:10:51.172Z,0.00
2018-01-08T04:11:51.151Z,0.00
2018-01-08T04:12:51.161Z,0.00
2018-01-08T04:13:51.127Z,0.00
2018-01-08T04:14:51.105Z,0.00
2018-01-08T04:15:51.080Z,0.00
2018-01-08T04:16:51.066Z,0.00
2018-01-08T04:17:51.054Z,0.00
2018-01-08T04:18:51.065Z,0.00
2018-01-08T04:19:51.010Z,0.00
2018-01-08T04:20:50.989Z,0.00
2018-01-08T04:21:50.984Z,0.00
2018-01-08T04:22:50.951Z,0.00
2018-01-08T04:23:50.938Z,0.00
2018-01-08T04:24:50.941Z,0.00
2018-01-08T04:25:50.908Z,0.00
2018-01-08T04:26:50.892Z,0.00
2018-01-08T04:27:50.873Z,0.00
2018-01-08T04:28:50.882Z,0.00
2018-01-08T04:29:50.836Z,0.00
2018-01-08T04:30:50.816Z,0.00
2018-01-08T04:31:50.794Z,0.00
2018-01-08T04:32:50.775Z,0.00
2018-01-08T04:33:50.761Z,0.00
2018-01-08T04:34:50.764Z,0.00
2018-01-08T04:35:50.728Z,0.00
2018-01-08T04:36:50.703Z,0.00
2018-01-08T04:37:50.693Z,0.00
2018-01-08T04:38:50.672Z,0.00
2018-01-08T04:39:50.691Z,0.00
2018-01-08T04:40:50.635Z,0.00
2018-01-08T04:41:50.624Z,0.00
2018-01-08T04:42:50.598Z,0.00
2018-01-08T04:43:50.582Z,0.00
2018-01-08T04:44:50.581Z,0.00
2018-01-08T04:45:50.571Z,0.00
2018-01-08T04:46:50.535Z,0.00
2018-01-08T04:47:50.514Z,0.00
2018-01-08T04:48:50.498Z,0.00
2018-01-08T04:49:50.493Z,0.00
2018-01-08T04:50:50.461Z,0.00
2018-01-08T04:51:50.461Z,0.00
2018-01-08T04:52:50.419Z,0.00
2018-01-08T04:53:50.407Z,0.00
2018-01-08T04:54:50.396Z,0.00
2018-01-08T04:55:50.365Z,0.00
2018-01-08T04:56:50.353Z,0.00
2018-01-08T04:57:50.366Z,0.00
2018-01-08T04:58:50.318Z,0.00
2018-01-08T04:59:50.294Z,0.00
2018-01-08T05:00:50.285Z,0.00
2018-01-08T05:01:50.266Z,0.00
2018-01-08T05:02:50.251Z,0.00
2018-01-08T05:03:50.258Z,0.00
2018-01-08T05:04:50.208Z,0.00
2018-01-08T05:05:50.187Z,0.00
2018-01-08T05:06:50.179Z,0.00
2018-01-08T05:07:50.166Z,0.00
2018-01-08T05:08:50.141Z,0.00
2018-01-08T05:09:50.140Z,0.00
2018-01-08T05:10:50.109Z,0.00
2018-01-08T05:11:50.090Z,0.00
2018-01-08T05:12:50.075Z,0.00
2018-01-08T05:13:50.048Z,0.00
2018-01-08T05:14:50.065Z,0.00
2018-01-08T05:15:50.019Z,0.00
2018-01-08T05:16:50.003Z,0.00
2018-01-08T05:17:49.980Z,0.00
2018-01-08T05:18:49.966Z,0.00
2018-01-08T05:19:49.941Z,0.00
2018-01-08T05:20:49.951Z,0.00
2018-01-08T05:21:49.909Z,0.00
2018-01-08T05:22:49.898Z,0.00
2018-01-08T05:23:49.870Z,0.00
2018-01-08T05:24:49.851Z,0.00
2018-01-08T05:25:49.840Z,0.00
2018-01-08T05:26:49.846Z,0.00
2018-01-08T05:27:49.797Z,0.00
2018-01-08T05:28:49.779Z,0.00
2018-01-08T05:29:49.767Z,0.00
2018-01-08T05:30:49.748Z,0.00
2018-01-08T05:31:49.746Z,0.00
2018-01-08T05:32:49.717Z,0.00
2018-01-08T05:33:49.696Z,0.00
2018-01-08T05:34:49.678Z,0.00
2018-01-08T05:35:49.663Z,0.00
2018-01-08T05:36:49.661Z,0.00
2018-01-08T05:37:49.616Z,0.00
2018-01-08T05:38:49.602Z,0.00
2018-01-08T05:39:49.582Z,0.00
2018-01-08T05:40:49.570Z,0.00
2018-01-08T05:41:49.557Z,0.00
2018-01-08T05:42:49.568Z,0.00
2018-01-08T05:43:49.524Z,0.00
2018-01-08T05:44:49.499Z,0.00
2018-01-08T05:45:49.479Z,0.00
2018-01-08T05:46:49.466Z,0.00
2018-01-08T05:47:49.440Z,0.00
2018-01-08T05:48:49.453Z,0.00
2018-01-08T05:49:49.407Z,0.00
2018-01-08T05:50:49.394Z,0.00
2018-01-08T05:51:49.370Z,0.00
2018-01-08T05:52:49.360Z,0.00
2018-01-08T05:53:49.362Z,0.00
2018-01-08T05:54:49.314Z,0.00
2018-01-08T05:55:49.299Z,0.00
2018-01-08T05:56:49.286Z,0.00
2018-01-08T05:57:49.272Z,0.00
2018-01-08T05:58:49.252Z,0.00
2018-01-08T05:59:49.264Z,0.00
2018-01-08T06:00:49.207Z,0.00
2018-01-08T06:01:49.197Z,0.00
2018-01-08T06:02:49.174Z,0.00
2018-01-08T06:03:49.165Z,0.00
2018-01-08T06:04:49.144Z,0.00
2018-01-08T06:05:49.152Z,0.00
2018-01-08T06:06:49.101Z,0.00
2018-01-08T06:07:49.092Z,0.00
2018-01-08T06:08:49.070Z,0.00
2018-01-08T06:09:49.045Z,0.00
2018-01-08T06:10:49.046Z,0.00
2018-01-08T06:11:49.043Z,0.00
2018-01-08T06:12:49.003Z,0.00
2018-01-08T06:13:48.984Z,0.00
2018-01-08T06:14:48.957Z,0.00
2018-01-08T06:15:48.942Z,0.00
2018-01-08T06:16:48.948Z,0.00
2018-01-08T06:17:48.906Z,0.00
2018-01-08T06:18:48.889Z,0.00
2018-01-08T06:19:48.884Z,0.00
2018-01-08T06:20:48.852Z,0.00
2018-01-08T06:21:48.865Z,0.00
2018-01-08T06:22:48.813Z,0.00
2018-01-08T06:23:48.808Z,0.00
2018-01-08T06:24:48.782Z,0.00
2018-01-08T06:25:48.769Z,0.00
2018-01-08T06:26:48.783Z,0.00
2018-01-08T06:27:48.728Z,0.00
2018-01-08T06:28:48.719Z,0.00
2018-01-08T06:29:48.689Z,0.00
2018-01-08T06:30:48.686Z,0.00
2018-01-08T06:31:48.666Z,0.00
2018-01-08T06:32:48.679Z,0.00
2018-01-08T06:33:48.623Z,0.00
2018-01-08T06:34:48.605Z,0.00
2018-01-08T06:35:48.592Z,0.00
2018-01-08T06:36:48.574Z,0.00
2018-01-08T06:37:48.548Z,0.00
2018-01-08T06:38:48.558Z,0.00
2018-01-08T06:39:48.521Z,0.00
2018-01-08T06:40:48.500Z,0.00
2018-01-08T06:41:48.486Z,0.00
2018-01-08T06:42:48.460Z,0.00
2018-01-08T06:43:48.468Z,0.00
2018-01-08T06:44:48.426Z,0.00
2018-01-08T06:45:48.410Z,0.00
2018-01-08T06:46:48.393Z,0.00
2018-01-08T06:47:48.378Z,0.00
2018-01-08T06:48:48.353Z,0.00
2018-01-08T06:49:48.360Z,0.00
2018-01-08T06:50:48.316Z,0.00
2018-01-08T06:51:48.306Z,0.00
2018-01-08T06:52:48.288Z,0.00
2018-01-08T06:53:48.269Z,0.00
2018-01-08T06:54:48.273Z,0.00
2018-01-08T06:55:48.231Z,0.00
2018-01-08T06:56:48.216Z,0.00
2018-01-08T06:57:48.192Z,0.00
2018-01-08T06:58:48.183Z,0.00
2018-01-08T06:59:48.167Z,0.00
2018-01-08T07:00:48.173Z,0.00
2018-01-08T07:01:48.128Z,0.00
2018-01-08T07:02:48.106Z,0.00
2018-01-08T07:03:48.088Z,0.00
2018-01-08T07:04:48.078Z,0.00
2018-01-08T07:05:48.074Z,4.00
2018-01-08T07:06:48.041Z,4.00
2018-01-08T07:07:48.023Z,0.00
2018-01-08T07:08:48.012Z,4.00
2018-01-08T07:09:47.987Z,4.00
2018-01-08T07:10:47.986Z,4.00
2018-01-08T07:11:47.948Z,4.00
2018-01-08T07:12:47.928Z,8.00
2018-01-08T07:13:47.914Z,8.00
2018-01-08T07:14:47.901Z,8.00
2018-01-08T07:15:47.909Z,12.00
2018-01-08T07:16:47.864Z,12.00
2018-01-08T07:17:47.843Z,12.00
2018-01-08T07:18:47.824Z,16.00
2018-01-08T07:19:47.807Z,20.00
2018-01-08T07:20:47.796Z,20.00
2018-01-08T07:21:47.810Z,24.00
2018-01-08T07:22:47.759Z,24.00
2018-01-08T07:23:47.733Z,32.00
2018-01-08T07:24:47.726Z,32.00
2018-01-08T07:25:47.707Z,40.00
2018-01-08T07:26:47.689Z,40.00
2018-01-08T07:27:47.690Z,44.00
2018-01-08T07:28:47.649Z,48.00
2018-01-08T07:29:47.637Z,52.00
2018-01-08T07:30:47.660Z,56.00
2018-01-08T07:31:47.631Z,64.00
2018-01-08T07:32:47.582Z,68.00
2018-01-08T07:33:47.565Z,68.00
2018-01-08T07:34:47.544Z,76.00
2018-01-08T07:35:47.530Z,80.00
2018-01-08T07:36:47.514Z,88.00
2018-01-08T07:37:47.521Z,96.00
2018-01-08T07:38:47.479Z,104.00
2018-01-08T07:39:47.465Z,116.00
2018-01-08T07:40:47.439Z,120.00
2018-01-08T07:41:47.434Z,132.00
2018-01-08T07:42:47.440Z,136.00
2018-01-08T07:43:47.396Z,144.00
2018-01-08T07:44:47.382Z,148.00
2018-01-08T07:45:47.363Z,156.00
2018-01-08T07:46:47.344Z,160.00
2018-01-08T07:47:47.318Z,176.00
2018-01-08T07:48:47.332Z,180.00
2018-01-08T07:49:47.291Z,184.00
2018-01-08T07:50:47.275Z,192.00
2018-01-08T07:51:47.253Z,196.00
2018-01-08T07:52:47.262Z,208.00
2018-01-08T07:53:47.225Z,220.00
2018-01-08T07:54:47.196Z,236.00
2018-01-08T07:55:47.181Z,248.00
2018-01-08T07:56:47.176Z,260.00
2018-01-08T07:57:47.145Z,268.00
2018-01-08T07:58:47.156Z,276.00
2018-01-08T07:59:47.122Z,272.00
2018-01-08T08:00:47.102Z,272.00
2018-01-08T08:01:47.079Z,288.00
2018-01-08T08:02:47.087Z,300.00
2018-01-08T08:03:47.051Z,312.00
2018-01-08T08:04:47.028Z,320.00
2018-01-08T08:05:47.016Z,320.00
2018-01-08T08:06:46.992Z,324.00
2018-01-08T08:07:46.988Z,340.00
2018-01-08T08:08:46.984Z,348.00
2018-01-08T08:09:46.951Z,364.00
2018-01-08T08:10:46.928Z,380.00
2018-01-08T08:11:46.913Z,388.00
2018-01-08T08:12:46.902Z,412.00
2018-01-08T08:13:46.899Z,436.00
2018-01-08T08:14:46.855Z,456.00
2018-01-08T08:15:46.851Z,476.00
2018-01-08T08:16:46.826Z,492.00
2018-01-08T08:17:46.815Z,528.00
2018-01-08T08:18:46.790Z,564.00
2018-01-08T08:19:46.819Z,596.00
2018-01-08T08:20:46.759Z,612.00
2018-01-08T08:21:46.751Z,656.00
2018-01-08T08:22:46.724Z,680.00
2018-01-08T08:23:46.705Z,716.00
2018-01-08T08:24:46.688Z,756.00
2018-01-08T08:25:46.694Z,760.00
2018-01-08T08:26:46.663Z,736.00
2018-01-08T08:27:46.643Z,764.00
2018-01-08T08:28:46.621Z,860.00
2018-01-08T08:29:46.597Z,892.00
2018-01-08T08:30:46.582Z,896.00
2018-01-08T08:31:46.591Z,912.00
2018-01-08T08:32:46.552Z,916.00
2018-01-08T08:33:46.530Z,912.00
2018-01-08T08:34:46.624Z,924.00
2018-01-08T08:35:46.500Z,868.00
2018-01-08T08:36:46.481Z,944.00
2018-01-08T08:37:46.499Z,960.00
2018-01-08T08:38:46.453Z,1000.00
2018-01-08T08:39:46.436Z,1028.00
2018-01-08T08:40:46.417Z,1052.00
2018-01-08T08:41:46.407Z,1012.00
2018-01-08T08:42:46.387Z,988.00
2018-01-08T08:43:46.392Z,972.00
2018-01-08T08:44:46.350Z,996.00
2018-01-08T08:45:46.330Z,1068.00
2018-01-08T08:46:46.312Z,1044.00
2018-01-08T08:47:46.305Z,1052.00
2018-01-08T08:48:46.314Z,1092.00
2018-01-08T08:49:46.268Z,1192.00
2018-01-08T08:50:46.252Z,1324.00
2018-01-08T08:51:46.237Z,1280.00
2018-01-08T08:52:46.217Z,1284.00
2018-01-08T08:53:46.202Z,1348.00
2018-01-08T08:54:46.210Z,1360.00
2018-01-08T08:55:46.161Z,1356.00
2018-01-08T08:56:46.146Z,1396.00
2018-01-08T08:57:46.135Z,1444.00
2018-01-08T08:58:46.116Z,1452.00
2018-01-08T08:59:46.092Z,1520.00
2018-01-08T09:00:46.106Z,1576.00
2018-01-08T09:01:46.059Z,1680.00
2018-01-08T09:02:46.051Z,1704.00
2018-01-08T09:03:46.028Z,1740.00
2018-01-08T09:04:46.019Z,1680.00
2018-01-08T09:05:46.016Z,1712.00
2018-01-08T09:06:45.976Z,1728.00
2018-01-08T09:07:45.958Z,1756.00
2018-01-08T09:08:45.944Z,1768.00
2018-01-08T09:09:45.937Z,1780.00
2018-01-08T09:10:45.945Z,1860.00
2018-01-08T09:11:45.905Z,1860.00
2018-01-08T09:12:45.876Z,1900.00
2018-01-08T09:13:45.868Z,1940.00
2018-01-08T09:14:45.851Z,1940.00
2018-01-08T09:15:45.831Z,1888.00
2018-01-08T09:16:45.839Z,1848.00
2018-01-08T09:17:45.793Z,1828.00
2018-01-08T09:18:45.784Z,1856.00
2018-01-08T09:19:45.760Z,1884.00
2018-01-08T09:20:45.757Z,1904.00
2018-01-08T09:21:45.737Z,1828.00
2018-01-08T09:22:45.734Z,1900.00
2018-01-08T09:23:45.699Z,1864.00
2018-01-08T09:24:45.686Z,1880.00
2018-01-08T09:25:45.673Z,1880.00
2018-01-08T09:26:45.675Z,2000.00
2018-01-08T09:27:45.641Z,2020.00
2018-01-08T09:28:45.614Z,2020.00
2018-01-08T09:29:45.596Z,2032.00
2018-01-08T09:30:45.581Z,2152.00
2018-01-08T09:31:45.595Z,2160.00
2018-01-08T09:32:45.548Z,2140.00
2018-01-08T09:33:45.544Z,2276.00
2018-01-08T09:34:45.518Z,2408.00
2018-01-08T09:35:45.505Z,2340.00
2018-01-08T09:36:55.447Z,2236.00
2018-01-08T09:37:45.465Z,2124.00
2018-01-08T09:38:45.456Z,2120.00
2018-01-08T09:39:45.437Z,2056.00
2018-01-08T09:40:45.424Z,2028.00
2018-01-08T09:41:45.405Z,2048.00
2018-01-08T09:42:45.411Z,2076.00
2018-01-08T09:43:45.368Z,2192.00
2018-01-08T09:44:45.398Z,2212.00
2018-01-08T09:45:45.335Z,2224.00
2018-01-08T09:46:45.327Z,2300.00
2018-01-08T09:47:45.334Z,2340.00
2018-01-08T09:48:45.299Z,2392.00
2018-01-08T09:49:45.270Z,2408.00
2018-01-08T09:50:45.251Z,2396.00
2018-01-08T09:51:45.242Z,2464.00
2018-01-08T09:52:45.225Z,2432.00
2018-01-08T09:53:45.249Z,2524.00
2018-01-08T09:54:45.187Z,2556.00
2018-01-08T09:55:45.180Z,2552.00
2018-01-08T09:56:45.163Z,2400.00
2018-01-08T09:57:45.148Z,2288.00
2018-01-08T09:58:45.126Z,2144.00
2018-01-08T09:59:45.241Z,2180.00
2018-01-08T10:00:45.122Z,2304.00
2018-01-08T10:01:45.084Z,2512.00
2018-01-08T10:02:45.065Z,2552.00
2018-01-08T10:03:45.053Z,2712.00
2018-01-08T10:04:45.029Z,2624.00
2018-01-08T10:05:45.035Z,2688.00
2018-01-08T10:06:45.000Z,2720.00
2018-01-08T10:07:44.984Z,2824.00
2018-01-08T10:08:44.967Z,2968.00
2018-01-08T10:09:44.955Z,3000.00
2018-01-08T10:10:44.959Z,2912.00
2018-01-08T10:11:44.912Z,2760.00
2018-01-08T10:12:44.901Z,2720.00
2018-01-08T10:13:44.893Z,2696.00
2018-01-08T10:14:44.876Z,2680.00
2018-01-08T10:15:44.874Z,2612.00
2018-01-08T10:16:44.833Z,2712.00
2018-01-08T10:17:44.817Z,2884.00
2018-01-08T10:18:44.810Z,2900.00
2018-01-08T10:19:44.793Z,3072.00
2018-01-08T10:20:44.776Z,3188.00
2018-01-08T10:21:44.787Z,3288.00
2018-01-08T10:22:44.738Z,3420.00
2018-01-08T10:23:44.724Z,3412.00
2018-01-08T10:24:44.753Z,3360.00
2018-01-08T10:25:44.690Z,3252.00
2018-01-08T10:26:44.682Z,3244.00
2018-01-08T10:27:44.682Z,3196.00
2018-01-08T10:28:44.651Z,3300.00
2018-01-08T10:29:44.626Z,3280.00
2018-01-08T10:30:44.616Z,3348.00
2018-01-08T10:31:54.471Z,3300.00
2018-01-08T10:32:44.584Z,3288.00
2018-01-08T10:33:44.569Z,3228.00
2018-01-08T10:34:44.554Z,3016.00
2018-01-08T10:35:44.537Z,2920.00
2018-01-08T10:36:44.517Z,2580.00
2018-01-08T10:37:44.528Z,2508.00
2018-01-08T10:38:44.485Z,2640.00
2018-01-08T10:39:44.476Z,2636.00
2018-01-08T10:40:44.460Z,2348.00
2018-01-08T10:41:44.442Z,2132.00
2018-01-08T10:42:44.454Z,2072.00
2018-01-08T10:43:44.412Z,2320.00
2018-01-08T10:44:44.397Z,2496.00
2018-01-08T10:45:44.375Z,2448.00
2018-01-08T10:46:44.359Z,2448.00
2018-01-08T10:47:44.342Z,2624.00
2018-01-08T10:48:44.358Z,2876.00
2018-01-08T10:49:44.321Z,3092.00
2018-01-08T10:50:44.301Z,3304.00
2018-01-08T10:51:44.289Z,3460.00
2018-01-08T10:52:44.314Z,3616.00
2018-01-08T10:53:44.251Z,3672.00
2018-01-08T10:54:44.244Z,3660.00
2018-01-08T10:55:44.217Z,3624.00
2018-01-08T10:56:44.209Z,3596.00
2018-01-08T10:57:44.192Z,3732.00
2018-01-08T10:58:44.202Z,3876.00
2018-01-08T10:59:44.156Z,3856.00
2018-01-08T11:00:44.145Z,3916.00
2018-01-08T11:01:44.127Z,3916.00
2018-01-08T11:02:44.116Z,3952.00
2018-01-08T11:03:44.125Z,4108.00
2018-01-08T11:04:44.083Z,4356.00
2018-01-08T11:05:44.069Z,4008.00
2018-01-08T11:06:44.053Z,4152.00
2018-01-08T11:07:44.038Z,4220.00
2018-01-08T11:08:44.046Z,4260.00
2018-01-08T11:09:44.011Z,4024.00
2018-01-08T11:10:43.995Z,3840.00
2018-01-08T11:11:43.971Z,3516.00
2018-01-08T11:12:43.957Z,3404.00
2018-01-08T11:13:43.945Z,3248.00
2018-01-08T11:14:43.959Z,3284.00
2018-01-08T11:15:43.907Z,3244.00
2018-01-08T11:16:43.899Z,3128.00
2018-01-08T11:17:43.890Z,3164.00
2018-01-08T11:18:43.895Z,3296.00
2018-01-08T11:19:43.849Z,3476.00
2018-01-08T11:20:43.841Z,3424.00
2018-01-08T11:21:43.827Z,3448.00
2018-01-08T11:22:43.810Z,3448.00
2018-01-08T11:23:43.792Z,3344.00
2018-01-08T11:24:43.794Z,3500.00
2018-01-08T11:25:43.755Z,3284.00
2018-01-08T11:26:43.752Z,3320.00
2018-01-08T11:27:43.727Z,3444.00
2018-01-08T11:28:43.712Z,3588.00
2018-01-08T11:29:43.717Z,3652.00
2018-01-08T11:30:43.686Z,3572.00
2018-01-08T11:31:43.668Z,3500.00
2018-01-08T11:32:43.663Z,3296.00
2018-01-08T11:33:43.646Z,3208.00
2018-01-08T11:34:43.653Z,3176.00
2018-01-08T11:35:43.613Z,3064.00
2018-01-08T11:36:43.598Z,2988.00
2018-01-08T11:37:43.573Z,2992.00
2018-01-08T11:38:43.563Z,2940.00
2018-01-08T11:39:43.572Z,2920.00
2018-01-08T11:40:43.533Z,2900.00
2018-01-08T11:41:43.515Z,2904.00
2018-01-08T11:42:43.502Z,2920.00
2018-01-08T11:43:43.493Z,2936.00
2018-01-08T11:44:43.476Z,2912.00
2018-01-08T11:45:43.474Z,2900.00
2018-01-08T11:46:43.435Z,2852.00
2018-01-08T11:47:43.426Z,2768.00
2018-01-08T11:48:43.415Z,2712.00
2018-01-08T11:49:43.390Z,2676.00
2018-01-08T11:50:43.399Z,2644.00
2018-01-08T11:51:43.364Z,2616.00
2018-01-08T11:52:43.348Z,2588.00
2018-01-08T11:53:43.337Z,2572.00
2018-01-08T11:54:43.363Z,2564.00
2018-01-08T11:55:43.331Z,2564.00
2018-01-08T11:56:43.293Z,2560.00
2018-01-08T11:57:43.280Z,2564.00
2018-01-08T11:58:43.262Z,2556.00
2018-01-08T11:59:43.246Z,2556.00
2018-01-08T12:00:43.226Z,2560.00
2018-01-08T12:01:43.236Z,2560.00
2018-01-08T12:02:43.195Z,2560.00
2018-01-08T12:03:43.179Z,2544.00
2018-01-08T12:04:43.170Z,2524.00
2018-01-08T12:05:43.157Z,2508.00
2018-01-08T12:06:43.166Z,2488.00
2018-01-08T12:07:43.126Z,2472.00
2018-01-08T12:08:43.112Z,2448.00
2018-01-08T12:09:43.089Z,2416.00
2018-01-08T12:10:43.074Z,2376.00
2018-01-08T12:11:43.065Z,2336.00
2018-01-08T12:12:43.078Z,2288.00
2018-01-08T12:13:43.032Z,2244.00
2018-01-08T12:14:43.019Z,2208.00
2018-01-08T12:15:43.009Z,2172.00
2018-01-08T12:16:42.985Z,2144.00
2018-01-08T12:17:42.982Z,2132.00
2018-01-08T12:18:42.993Z,2116.00
2018-01-08T12:19:42.942Z,2108.00
2018-01-08T12:20:42.948Z,2112.00
2018-01-08T12:21:42.919Z,2132.00
2018-01-08T12:22:42.891Z,2160.00
2018-01-08T12:23:42.919Z,2192.00
2018-01-08T12:24:42.867Z,2232.00
2018-01-08T12:25:42.849Z,2284.00
2018-01-08T12:26:42.830Z,2336.00
2018-01-08T12:27:42.821Z,2388.00
2018-01-08T12:28:42.800Z,2436.00
2018-01-08T12:29:42.819Z,2484.00
2018-01-08T12:30:42.797Z,2540.00
2018-01-08T12:31:42.759Z,2580.00
2018-01-08T12:32:42.737Z,2600.00
2018-01-08T12:33:42.724Z,2624.00
2018-01-08T12:34:42.709Z,2644.00
2018-01-08T12:35:42.728Z,2672.00
2018-01-08T12:36:42.684Z,2672.00
2018-01-08T12:37:42.668Z,2680.00
2018-01-08T12:38:42.649Z,2704.00
2018-01-08T12:39:42.635Z,2744.00
2018-01-08T12:40:42.850Z,2788.00
2018-01-08T12:41:42.633Z,2828.00
2018-01-08T12:42:42.595Z,2848.00
2018-01-08T12:43:42.578Z,2876.00
2018-01-08T12:44:42.564Z,2916.00
2018-01-08T12:45:42.538Z,2952.00
2018-01-08T12:46:42.527Z,3008.00
2018-01-08T12:47:42.542Z,3056.00
2018-01-08T12:48:42.495Z,3100.00